createdAt,value
2018-09-21T00:04:39.328Z,100752.31
2018-09-21T00:09:31.942Z,100757.86
2018-09-21T00:14:24.518Z,100754.93
2018-09-21T00:19:17.103Z,100743.23
2018-09-21T00:24:09.740Z,100742.48
2018-09-21T00:29:02.348Z,100733.27
2018-09-21T00:33:54.936Z,100728.14
2018-09-21T00:38:47.571Z,100726.58
2018-09-21T00:43:40.179Z,100730.42
2018-09-21T00:48:32.751Z,100718.98
2018-09-21T00:53:25.359Z,100709.45
2018-09-21T00:58:17.968Z,100707.55
2018-09-21T01:03:10.541Z,100699.93
2018-09-21T01:08:03.267Z,100696.45
2018-09-21T01:12:55.871Z,100692.02
2018-09-21T01:17:48.490Z,100687.09
2018-09-21T01:22:41.119Z,100681.17
2018-09-21T01:27:33.658Z,100676.84
2018-09-21T01:32:26.210Z,100669.80
2018-09-21T01:37:18.726Z,100664.20
2018-09-21T01:42:11.278Z,100666.03
2018-09-21T01:47:04.074Z,100657.50
2018-09-21T01:51:56.654Z,100655.99
2018-09-21T01:56:49.241Z,100660.87
2018-09-21T02:01:41.791Z,100654.55
2018-09-21T02:06:34.351Z,100647.20
2018-09-21T02:11:27.091Z,100639.58
2018-09-21T02:16:19.860Z,100638.73
2018-09-21T02:21:12.471Z,100631.62
2018-09-21T02:26:05.057Z,100629.25
2018-09-21T02:30:57.611Z,100633.42
2018-09-21T02:35:50.200Z,100625.32
2018-09-21T02:40:42.915Z,100609.13
2018-09-21T02:45:35.474Z,100605.29
2018-09-21T02:50:28.065Z,100614.28
2018-09-21T02:55:20.620Z,100612.94
2018-09-21T03:00:13.346Z,100609.72
2018-09-21T03:05:05.948Z,100602.63
2018-09-21T03:09:58.644Z,100592.27
2018-09-21T03:14:51.274Z,100585.98
2018-09-21T03:19:43.920Z,100582.44
2018-09-21T03:24:36.516Z,100573.26
2018-09-21T03:29:29.258Z,100568.08
2018-09-21T03:34:21.805Z,100567.83
2018-09-21T03:39:14.416Z,100558.55
2018-09-21T03:44:07.120Z,100555.55
2018-09-21T03:48:59.707Z,100556.14
2018-09-21T03:53:52.412Z,100541.76
2018-09-21T03:58:45.018Z,100550.09
2018-09-21T04:03:37.660Z,100539.48
2018-09-21T04:08:30.337Z,100533.23
2018-09-21T04:13:22.976Z,100528.06
2018-09-21T04:18:15.744Z,100531.55
2018-09-21T04:23:08.430Z,100525.23
2018-09-21T04:28:01.007Z,100510.19
2018-09-21T04:32:53.643Z,100511.20
2018-09-21T04:37:46.332Z,100502.44
2018-09-21T04:42:39.250Z,100489.88
2018-09-21T04:47:32.936Z,100481.13
2018-09-21T04:52:25.558Z,100487.87
2018-09-21T04:57:18.166Z,100482.67
2018-09-21T05:02:10.744Z,100480.20
2018-09-21T05:07:03.387Z,100476.09
2018-09-21T05:11:55.985Z,100476.09
2018-09-21T05:16:48.626Z,100463.53
2018-09-21T05:21:41.388Z,100461.31
2018-09-21T05:26:34.009Z,100457.95
2018-09-21T05:31:26.846Z,100452.41
2018-09-21T05:36:19.559Z,100456.66
2018-09-21T05:41:12.102Z,100450.55
2018-09-21T05:46:04.670Z,100443.55
2018-09-21T05:50:57.211Z,100441.21
2018-09-21T05:55:49.790Z,100437.83
2018-09-21T06:00:42.426Z,100438.22
2018-09-21T06:05:35.254Z,100439.23
2018-09-21T06:10:27.955Z,100428.97
2018-09-21T06:15:20.646Z,100428.50
2018-09-21T06:20:13.256Z,100430.20
2018-09-21T06:25:06.558Z,100420.73
2018-09-21T06:29:59.167Z,100412.33
2018-09-21T06:34:51.919Z,100403.37
2018-09-21T06:39:44.507Z,100411.66
2018-09-21T06:44:37.056Z,100392.91
2018-09-21T06:54:28.864Z,100402.05
2018-09-21T06:59:21.522Z,100398.48
2018-09-21T07:04:14.099Z,100391.45
2018-09-21T07:09:10.891Z,100382.25
2018-09-21T07:14:03.503Z,100370.92
2018-09-21T07:18:56.179Z,100365.92
2018-09-21T07:23:48.835Z,100356.63
2018-09-21T07:28:41.495Z,100346.78
2018-09-21T07:33:34.093Z,100322.83
2018-09-21T07:38:26.775Z,100316.42
2018-09-21T07:43:19.398Z,100327.09
2018-09-21T07:48:12.196Z,100329.32
2018-09-21T07:53:05.091Z,100323.06
2018-09-21T07:57:57.719Z,100329.97
2018-09-21T08:02:50.471Z,100341.48
2018-09-21T08:07:43.116Z,100312.33
2018-09-21T08:12:35.751Z,100308.98
2018-09-21T08:17:28.423Z,100301.90
2018-09-21T08:22:21.039Z,100293.83
2018-09-21T08:27:15.467Z,100289.68
2018-09-21T08:32:08.128Z,100279.34
2018-09-21T08:37:00.848Z,100270.25
2018-09-21T08:41:53.469Z,100269.62
2018-09-21T08:46:45.976Z,100273.80
2018-09-21T08:51:38.549Z,100266.70
2018-09-21T08:56:32.215Z,100298.67
2018-09-21T09:01:24.795Z,100262.09
2018-09-21T09:06:17.476Z,100263.46
2018-09-21T09:11:10.104Z,100239.28
2018-09-21T09:16:02.796Z,100232.92
2018-09-21T09:20:55.384Z,100223.39
2018-09-21T09:25:48.058Z,100209.81
2018-09-21T09:30:40.629Z,100207.63
2018-09-21T09:35:33.312Z,100201.48
2018-09-21T09:40:25.987Z,100188.94
2018-09-21T09:45:18.599Z,100184.91
2018-09-21T09:50:11.374Z,100173.45
2018-09-21T09:55:04.175Z,100154.88
2018-09-21T09:59:56.828Z,100147.73
2018-09-21T10:04:49.691Z,100140.59
2018-09-21T10:09:42.319Z,100121.80
2018-09-21T10:14:34.891Z,100121.95
2018-09-21T10:19:27.587Z,100112.21
2018-09-21T10:24:20.363Z,100097.78
2018-09-21T10:29:12.924Z,100085.83
2018-09-21T10:34:05.645Z,100077.87
2018-09-21T10:38:58.377Z,100071.05
2018-09-21T10:43:50.922Z,100067.67
2018-09-21T10:48:43.637Z,100055.48
2018-09-21T10:53:36.720Z,100054.70
2018-09-21T10:58:29.327Z,100048.24
2018-09-21T11:03:21.965Z,100031.53
2018-09-21T11:08:14.470Z,100011.91
2018-09-21T11:13:07.091Z,100004.35
2018-09-21T11:17:59.679Z,100001.75
2018-09-21T11:22:52.308Z,99997.20
2018-09-21T11:27:44.898Z,99991.44
2018-09-21T11:32:37.504Z,99990.01
2018-09-21T11:37:30.193Z,99972.52
2018-09-21T11:42:22.797Z,99968.97
2018-09-21T11:47:15.460Z,99958.08
2018-09-21T11:52:08.106Z,99961.39
2018-09-21T11:57:07.527Z,99967.90
2018-09-21T12:02:00.199Z,99940.28
2018-09-21T12:06:52.815Z,99932.98
2018-09-21T12:11:45.520Z,99926.05
2018-09-21T12:16:38.172Z,99917.72
2018-09-21T12:21:30.995Z,99901.92
2018-09-21T12:26:23.557Z,99904.41
2018-09-21T12:31:16.176Z,99914.54
2018-09-21T12:36:08.884Z,99887.86
2018-09-21T12:41:01.522Z,99891.75
2018-09-21T12:45:54.101Z,99885.92
2018-09-21T12:50:46.887Z,99890.94
2018-09-21T12:55:39.471Z,99887.19
2018-09-21T13:00:37.922Z,99890.06
2018-09-21T13:05:30.609Z,99896.02
2018-09-21T13:10:23.314Z,99873.70
2018-09-21T13:15:16.153Z,99897.71
2018-09-21T13:20:08.777Z,99870.77
2018-09-21T13:25:01.404Z,99853.00
2018-09-21T13:29:54.066Z,99846.17
2018-09-21T13:34:46.949Z,99859.56
2018-09-21T13:39:39.514Z,99853.33
2018-09-21T13:44:32.182Z,99843.58
2018-09-21T13:49:24.691Z,99843.41
2018-09-21T13:54:17.340Z,99837.32
2018-09-21T13:59:10.040Z,99836.60
2018-09-21T14:04:02.654Z,99821.70
2018-09-21T14:08:55.258Z,99826.58
2018-09-21T14:13:48.130Z,99820.17
2018-09-21T14:18:40.772Z,99814.45
2018-09-21T14:23:33.324Z,99824.86
2018-09-21T14:28:25.884Z,99852.42
2018-09-21T14:33:18.629Z,99846.38
2018-09-21T14:38:11.293Z,99998.66
2018-09-21T14:43:03.902Z,100041.03
2018-09-21T14:47:56.524Z,100113.47
2018-09-21T14:52:49.107Z,100093.98
2018-09-21T14:57:41.705Z,100098.19
2018-09-21T15:02:34.379Z,100113.44
2018-09-21T15:07:26.930Z,100164.81
2018-09-21T15:12:19.767Z,100209.38
2018-09-21T15:17:12.359Z,100219.41
2018-09-21T15:22:05.320Z,100231.14
2018-09-21T15:26:57.992Z,100249.65
2018-09-21T15:31:50.579Z,100242.51
2018-09-21T15:36:43.188Z,100271.98
2018-09-21T15:41:35.836Z,100276.05
2018-09-21T15:46:28.465Z,100273.07
2018-09-21T15:51:21.182Z,100288.95
2018-09-21T15:56:13.744Z,100296.55
2018-09-21T16:01:07.583Z,100305.15
2018-09-21T16:06:00.239Z,100296.84
2018-09-21T16:10:53.321Z,100295.53
2018-09-21T16:15:45.964Z,100291.95
2018-09-21T16:20:38.715Z,100289.28
2018-09-21T16:25:31.399Z,100316.83
2018-09-21T16:30:24.041Z,100328.56
2018-09-21T16:35:17.100Z,100295.97
2018-09-21T16:40:09.732Z,100306.11
2018-09-21T16:45:02.407Z,100328.41
2018-09-21T16:49:55.188Z,100294.98
2018-09-21T16:54:47.738Z,100334.32
2018-09-21T16:59:40.339Z,100304.68
2018-09-21T17:04:33.194Z,100286.03
2018-09-21T17:09:25.611Z,100303.18
2018-09-21T17:14:18.161Z,100295.55
2018-09-21T17:19:10.886Z,100291.52
2018-09-21T17:24:03.634Z,100271.47
2018-09-21T17:28:56.269Z,100323.62
2018-09-21T17:33:48.864Z,100349.30
2018-09-21T17:38:41.518Z,100380.76
2018-09-21T17:43:34.198Z,100376.84
2018-09-21T17:48:26.796Z,100400.02
2018-09-21T17:53:19.338Z,100421.03
2018-09-21T17:58:11.940Z,100440.95
2018-09-21T18:03:04.583Z,100426.90
2018-09-21T18:07:57.308Z,100456.31
2018-09-21T18:12:49.911Z,100429.66
2018-09-21T18:17:42.558Z,100426.45
2018-09-21T18:22:35.191Z,100381.09
2018-09-21T18:27:27.872Z,100400.89
2018-09-21T18:32:20.423Z,100426.20
2018-09-21T18:37:13.053Z,100433.81
2018-09-21T18:42:05.670Z,100444.14
2018-09-21T18:46:58.416Z,100484.09
2018-09-21T18:51:51.046Z,100490.91
2018-09-21T18:56:44.071Z,100510.20
2018-09-21T19:01:36.736Z,100524.30
2018-09-21T19:06:29.355Z,100535.98
2018-09-21T19:11:22.032Z,100524.84
2018-09-21T19:16:14.866Z,100526.47
2018-09-21T19:21:07.536Z,100546.83
2018-09-21T19:26:00.116Z,100562.03
2018-09-21T19:30:52.688Z,100581.03
2018-09-21T19:35:45.276Z,100584.58
2018-09-21T19:40:37.937Z,100596.48
2018-09-21T19:45:30.589Z,100598.38
2018-09-21T19:50:23.234Z,100617.09
2018-09-21T19:55:15.860Z,100627.14
2018-09-21T20:00:08.449Z,100643.69
2018-09-21T20:05:01.219Z,100644.80
2018-09-21T20:09:53.762Z,100653.78
2018-09-21T20:14:46.376Z,100656.25
2018-09-21T20:19:39.011Z,100672.55
2018-09-21T20:24:31.676Z,100682.60
2018-09-21T20:29:24.230Z,100698.56
2018-09-21T20:34:16.908Z,100715.63
2018-09-21T20:39:09.470Z,100716.45
2018-09-21T20:44:02.251Z,100719.38
2018-09-21T20:48:54.840Z,100730.14
2018-09-21T20:53:47.410Z,100725.45
2018-09-21T20:58:39.993Z,100731.31
2018-09-21T21:03:32.563Z,100725.30
2018-09-21T21:08:25.218Z,100741.75
2018-09-21T21:13:17.858Z,100742.80
2018-09-21T21:18:11.181Z,100745.77
2018-09-21T21:23:03.939Z,100742.45
2018-09-21T21:27:56.507Z,100751.85
2018-09-21T21:32:49.182Z,100774.45
2018-09-21T21:37:41.809Z,100784.22
2018-09-21T21:42:34.405Z,100785.72
2018-09-21T21:47:27.197Z,100792.98
2018-09-21T21:52:19.755Z,100802.89
2018-09-21T21:57:12.586Z,100801.24
2018-09-21T22:02:09.538Z,100799.28
2018-09-21T22:07:02.161Z,100803.55
2018-09-21T22:12:00.566Z,100796.16
2018-09-21T22:16:53.327Z,100799.31
2018-09-21T22:21:45.946Z,100811.46
2018-09-21T22:26:38.513Z,100825.45
2018-09-21T22:31:31.383Z,100818.31
2018-09-21T22:36:23.963Z,100813.09
2018-09-21T22:41:17.025Z,100818.45
2018-09-21T22:46:09.572Z,100819.77
2018-09-21T22:51:02.144Z,100834.93
2018-09-21T22:55:54.709Z,100833.59
2018-09-21T23:00:47.286Z,100855.05
2018-09-21T23:05:39.917Z,100861.56
2018-09-21T23:10:32.492Z,100863.45
2018-09-21T23:15:25.066Z,100868.00
2018-09-21T23:20:17.670Z,100875.24
2018-09-21T23:25:10.275Z,100868.43
2018-09-21T23:30:02.920Z,100881.96
2018-09-21T23:34:55.508Z,100863.75
2018-09-21T23:39:48.111Z,100878.34
2018-09-21T23:44:40.751Z,100878.18
2018-09-21T23:49:33.337Z,100880.53
2018-09-21T23:54:25.875Z,100868.84
2018-09-21T23:59:19.069Z,100861.96
